Details From KIAD - Washington Dulles Intl
To GOOY - Dakar Leopold Sedar Senghor Intl
Flight Number -
Tags Generated
Created
Modified
Stats Distance 3,458 nm / 6,405 km
Max Altitude 0 ft / 0 m
Waypoints 4
Social Downloads 0
Likes 0
Share VATSIM

Download

Looking for another format? Having issues loading an existing format? Contact us
Advertisement - Login to hide

Notes

Generated

Route

KIAD DIVET YF312 GOOY

ID Type Via Altitude Latitude Longitude Leg Dist Tot Dist Heading (true) Name
O KIAD APT - 0 ft / 0 m 38.94377˚ -77.49044˚ - 0 nm - -
DIVET FIX - 0 ft / 0 m 38.32889˚ -73.26028˚ 201 nm 201 nm 99° / 102° -
YF312 FIX - 0 ft / 0 m 14.80752˚ -17.63440˚ 3247 nm 3449 nm 100° / 127° -
O GOOY APT - 0 ft / 0 m 14.73171˚ -17.50427˚ 8 nm 3458 nm 121° / 121° -

Altitude Profile

Advertisement - Login to hide

Weather


0- 5 10 15 20 25 30 35+ Temperature / ° C

Clouds and Precipitation
Forecast for 2018-05-27 06:00 UTC. Updated 3 hours ago

Ground ~20,000 ft ~40,000 ft Winds

KIAD

Details ICAO KIAD (IAD)
Name Washington Dulles Intl
Region United States
Timezone America/New_York (UTC-4.0)
Stats Elevation 313 ft / 95 m (AMSL)
Location 38.947707° -77.460857°
Runways 4
Magnetic Variation 10.596° W

METAR

KIAD 270752Z 20006KT 10SM OVC007 22/22 A2988 RMK AO2 SLP114 T02220217

Decode

TAF

KIAD 270730Z 2708/2812 19005KT P6SM OVC007 FM271200 24004KT P6SM BKN050 FM271800 VRB04KT P6SM VCTS OVC040CB FM280000 15004KT P6SM BKN025

Decode

Departure Runways

ID Width Length Bearing (true) Bearing (mag) Surface Threshold Offset Overrun Length
01C 151 ft / 46 m 11,523 ft / 3,512 m 0.64° 11.24° Concrete 0 ft / 0 m 0 ft / 0 m
01R 151 ft / 46 m 11,522 ft / 3,512 m 0.67° 11.27° Concrete 0 ft / 0 m 0 ft / 0 m
12 151 ft / 46 m 10,476 ft / 3,193 m 110.73° 121.33° Concrete 0 ft / 0 m 0 ft / 0 m
19C 151 ft / 46 m 11,523 ft / 3,512 m 180.64° 191.24° Concrete 0 ft / 0 m 0 ft / 0 m
19L 151 ft / 46 m 11,522 ft / 3,512 m 180.67° 191.27° Concrete 0 ft / 0 m 400 ft / 122 m
19R 151 ft / 46 m 9,428 ft / 2,874 m 180.58° 191.18° Concrete 0 ft / 0 m 400 ft / 122 m
1L 151 ft / 46 m 9,428 ft / 2,874 m 0.58° 11.18° Concrete 0 ft / 0 m 400 ft / 122 m
30 151 ft / 46 m 10,476 ft / 3,193 m 290.75° 301.35° Concrete 0 ft / 0 m 400 ft / 122 m

GOOY

Details ICAO GOOY (DKR)
Name Dakar Leopold Sedar Senghor Intl
Region Senegal
Timezone Africa/Dakar (UTC+0.0)
Stats Elevation 85 ft / 26 m (AMSL)
Location 14.739711° -17.490226°
Runways 2
Magnetic Variation 7.296° W

METAR

GOOY 270800Z 36008KT CAVOK 21/19 Q1013

Decode

TAF

TAF GOOY 270530Z 2706/2812 34010KT CAVOK= TAF GBYD 270530Z 2706/2812 33008KT CAVOK

Decode

Destination Runways

ID Width Length Bearing (true) Bearing (mag) Surface Threshold Offset Overrun Length
03 98 ft / 30 m 4,921 ft / 1,500 m 22.31° 29.61° Asphalt 0 ft / 0 m 98 ft / 30 m
18 148 ft / 45 m 11,511 ft / 3,509 m 172.57° 179.87° Asphalt 525 ft / 160 m 197 ft / 60 m
21 98 ft / 30 m 4,921 ft / 1,500 m 202.31° 209.61° Asphalt 0 ft / 0 m 1,590 ft / 485 m
36 148 ft / 45 m 11,511 ft / 3,509 m 352.57° 359.87° Asphalt 0 ft / 0 m 197 ft / 60 m

Approach Navaids

Runway Type Ident Frequency Range Bearing (true) Bearing (mag) Slope Elevation
36 Localiser YF 110.30 MHz 18 nm / 33 km 352.33° 359.62° - 65 ft / 20 m (AMSL)
36 Glidescope YF 110.30 MHz 10 nm / 19 km 352.57° 359.87° 3.01° 73 ft / 22 m (AMSL)
36 DME YF 110.30 MHz 18 nm / 33 km - - - 73 ft / 22 m (AMSL)

Popular Alternatives